Time;durP1;ratioP1;P1;durP2;ratioP2;P2;SDS_P1;SDS_P2;PMS_P1;PMS_P2;Temp;Humidity;BMP_temperature;BMP_pressure;BME280_temperature;BME280_humidity;BME280_pressure;Samples;Min_cycle;Max_cycle;Signal;HPM_P1;HPM_P2
2023/12/09 00:00:43;;;;;;;0.15;0.15;;;;;;;;;;1736813;28;20227;-64
2023/12/09 00:01:39;;;;;;;0.00;0.00;;;;;;;;;;1738233;28;20725;-62
2023/12/09 00:02:31;;;;;;;0.00;0.00;;;;;;;;;;1738711;28;20690;-61
2023/12/09 00:03:23;;;;;;;0.00;0.00;;;;;;;;;;1737991;28;20281;-62
2023/12/09 00:04:14;;;;;;;0.00;0.00;;;;;;;;;;1738768;28;20203;-64
2023/12/09 00:05:06;;;;;;;0.00;0.00;;;;;;;;;;1738292;28;20269;-62
2023/12/09 00:05:58;;;;;;;0.00;0.00;;;;;;;;;;1737715;28;20238;-64
2023/12/09 00:06:51;;;;;;;0.00;0.00;;;;;;;;;;1738568;28;20233;-64
2023/12/09 00:07:42;;;;;;;0.00;0.00;;;;;;;;;;1738599;28;20211;-62
2023/12/09 00:08:33;;;;;;;0.00;0.00;;;;;;;;;;1738425;28;20207;-61
2023/12/09 00:09:32;;;;;;;0.00;0.00;;;;;;;;;;1738668;28;20622;-64
2023/12/09 00:10:23;;;;;;;0.00;0.00;;;;;;;;;;1737122;28;20218;-63
2023/12/09 00:11:14;;;;;;;0.00;0.00;;;;;;;;;;1737382;28;20231;-64
2023/12/09 00:12:06;;;;;;;0.00;0.00;;;;;;;;;;1738116;28;20199;-62
2023/12/09 00:12:57;;;;;;;0.00;0.00;;;;;;;;;;1738923;28;20207;-61
2023/12/09 00:13:48;;;;;;;0.00;0.00;;;;;;;;;;1738576;28;20203;-61
2023/12/09 00:14:40;;;;;;;0.00;0.00;;;;;;;;;;1738976;28;20210;-61
2023/12/09 00:15:31;;;;;;;0.00;0.00;;;;;;;;;;1737329;28;20300;-62
2023/12/09 00:16:22;;;;;;;0.00;0.00;;;;;;;;;;1738594;28;20206;-67
2023/12/09 00:17:14;;;;;;;0.00;0.00;;;;;;;;;;1738200;28;20205;-61
2023/12/09 00:18:05;;;;;;;0.00;0.00;;;;;;;;;;1738273;28;20211;-62
2023/12/09 00:18:57;;;;;;;0.00;0.00;;;;;;;;;;1738710;28;20211;-63
2023/12/09 00:19:49;;;;;;;0.00;0.00;;;;;;;;;;1738578;28;20616;-61
2023/12/09 00:20:40;;;;;;;0.00;0.00;;;;;;;;;;1737458;28;20291;-61
2023/12/09 00:21:32;;;;;;;0.00;0.00;;;;;;;;;;1738407;28;20207;-62
2023/12/09 00:22:24;;;;;;;0.00;0.00;;;;;;;;;;1738486;28;20272;-63
2023/12/09 00:23:15;;;;;;;0.00;0.00;;;;;;;;;;1738287;28;20206;-63
2023/12/09 00:24:07;;;;;;;0.00;0.00;;;;;;;;;;1738271;28;20205;-62
2023/12/09 00:24:58;;;;;;;0.00;0.00;;;;;;;;;;1738362;28;20225;-62
2023/12/09 00:25:49;;;;;;;0.00;0.00;;;;;;;;;;1737945;28;20647;-61
2023/12/09 00:26:41;;;;;;;0.00;0.00;;;;;;;;;;1737733;28;20203;-65
2023/12/09 00:27:32;;;;;;;0.00;0.00;;;;;;;;;;1738919;28;20260;-62
2023/12/09 00:28:23;;;;;;;0.00;0.00;;;;;;;;;;1738030;28;20733;-61
2023/12/09 00:29:15;;;;;;;0.08;0.08;;;;;;;;;;1738671;28;20658;-61
2023/12/09 00:30:07;;;;;;;0.00;0.00;;;;;;;;;;1737900;28;20298;-60
2023/12/09 00:30:58;;;;;;;0.00;0.00;;;;;;;;;;1737674;28;20231;-62
2023/12/09 00:31:50;;;;;;;0.00;0.00;;;;;;;;;;1738551;28;20202;-63
2023/12/09 00:32:41;;;;;;;0.00;0.00;;;;;;;;;;1738409;28;20272;-64
2023/12/09 00:33:33;;;;;;;0.00;0.00;;;;;;;;;;1738014;28;20727;-63
2023/12/09 00:34:24;;;;;;;0.00;0.00;;;;;;;;;;1738479;28;20271;-63
2023/12/09 00:35:15;;;;;;;0.00;0.00;;;;;;;;;;1738165;28;20203;-63
2023/12/09 00:36:07;;;;;;;0.00;0.00;;;;;;;;;;1737156;28;20266;-63
2023/12/09 00:36:58;;;;;;;0.00;0.00;;;;;;;;;;1737829;28;20250;-65
2023/12/09 00:37:51;;;;;;;0.00;0.00;;;;;;;;;;1739054;28;20645;-62
2023/12/09 00:38:43;;;;;;;0.00;0.00;;;;;;;;;;1737960;28;20805;-64
2023/12/09 00:39:34;;;;;;;0.00;0.00;;;;;;;;;;1738687;28;20249;-61
2023/12/09 00:40:25;;;;;;;0.00;0.00;;;;;;;;;;1736779;28;20198;-61
2023/12/09 00:41:17;;;;;;;0.00;0.00;;;;;;;;;;1738455;28;20245;-60
2023/12/09 00:42:08;;;;;;;0.00;0.00;;;;;;;;;;1738113;28;20264;-61
2023/12/09 00:42:59;;;;;;;0.00;0.00;;;;;;;;;;1738490;28;20229;-61
2023/12/09 00:43:50;;;;;;;0.00;0.00;;;;;;;;;;1738627;28;20275;-60
2023/12/09 00:44:44;;;;;;;0.00;0.00;;;;;;;;;;1738286;28;20646;-64
2023/12/09 00:45:35;;;;;;;0.00;0.00;;;;;;;;;;1737444;28;20778;-61
2023/12/09 00:46:26;;;;;;;0.00;0.00;;;;;;;;;;1738079;28;20732;-62
2023/12/09 00:47:17;;;;;;;0.00;0.00;;;;;;;;;;1738067;28;20667;-61
2023/12/09 00:48:08;;;;;;;0.00;0.00;;;;;;;;;;1738135;28;20262;-60
2023/12/09 00:49:00;;;;;;;0.00;0.00;;;;;;;;;;1738367;28;20207;-60
2023/12/09 00:49:51;;;;;;;0.00;0.00;;;;;;;;;;1738805;28;20211;-61
2023/12/09 00:50:42;;;;;;;0.00;0.00;;;;;;;;;;1737553;28;20280;-60
2023/12/09 00:51:34;;;;;;;0.00;0.00;;;;;;;;;;1738081;28;20237;-60
2023/12/09 00:52:25;;;;;;;0.00;0.00;;;;;;;;;;1735811;28;20264;-61
2023/12/09 00:53:18;;;;;;;0.00;0.00;;;;;;;;;;1738078;28;20558;-60
2023/12/09 00:54:10;;;;;;;0.00;0.00;;;;;;;;;;1739012;28;20670;-60
2023/12/09 00:55:01;;;;;;;0.00;0.00;;;;;;;;;;1738129;28;20219;-60
2023/12/09 00:55:52;;;;;;;0.00;0.00;;;;;;;;;;1737719;28;20325;-64
2023/12/09 00:56:44;;;;;;;0.00;0.00;;;;;;;;;;1738206;28;20231;-63
2023/12/09 00:57:35;;;;;;;0.00;0.00;;;;;;;;;;1738773;28;20255;-65
2023/12/09 00:58:26;;;;;;;0.00;0.00;;;;;;;;;;1738518;28;20237;-65
2023/12/09 00:59:18;;;;;;;0.00;0.00;;;;;;;;;;1738822;28;20321;-63
2023/12/09 01:00:10;;;;;;;0.00;0.00;;;;;;;;;;1738332;28;20211;-62
2023/12/09 01:01:01;;;;;;;0.00;0.00;;;;;;;;;;1736878;28;20304;-61
2023/12/09 01:01:52;;;;;;;0.00;0.00;;;;;;;;;;1738393;28;20210;-61
2023/12/09 01:02:43;;;;;;;0.00;0.00;;;;;;;;;;1738245;28;20211;-61
2023/12/09 01:03:35;;;;;;;0.00;0.00;;;;;;;;;;1738142;28;20203;-63
2023/12/09 01:04:26;;;;;;;0.00;0.00;;;;;;;;;;1738785;28;20252;-64
2023/12/09 01:05:17;;;;;;;0.00;0.00;;;;;;;;;;1737268;28;20210;-61
2023/12/09 01:06:09;;;;;;;0.00;0.00;;;;;;;;;;1738463;28;20805;-64
2023/12/09 01:07:01;;;;;;;0.00;0.00;;;;;;;;;;1738121;28;20280;-64
2023/12/09 01:07:53;;;;;;;0.00;0.00;;;;;;;;;;1738781;28;20265;-60
2023/12/09 01:08:45;;;;;;;0.00;0.00;;;;;;;;;;1738028;28;20264;-63
2023/12/09 01:09:37;;;;;;;0.00;0.00;;;;;;;;;;1738820;28;20203;-61
2023/12/09 01:10:28;;;;;;;0.00;0.00;;;;;;;;;;1736621;28;20603;-60
2023/12/09 01:11:19;;;;;;;0.00;0.00;;;;;;;;;;1737206;28;20569;-61
2023/12/09 01:12:11;;;;;;;0.00;0.00;;;;;;;;;;1738076;28;20198;-61
2023/12/09 01:13:02;;;;;;;0.00;0.00;;;;;;;;;;1738635;28;20575;-64
2023/12/09 01:13:53;;;;;;;0.00;0.00;;;;;;;;;;1733840;28;20207;-63
2023/12/09 01:14:45;;;;;;;0.00;0.00;;;;;;;;;;1733226;28;20515;-66
2023/12/09 01:15:36;;;;;;;0.00;0.00;;;;;;;;;;1736954;28;20962;-63
2023/12/09 01:16:28;;;;;;;0.00;0.00;;;;;;;;;;1737177;28;20717;-62
2023/12/09 01:17:19;;;;;;;0.00;0.00;;;;;;;;;;1733745;28;20572;-63
2023/12/09 01:18:10;;;;;;;0.00;0.00;;;;;;;;;;1737984;28;20580;-61
2023/12/09 01:19:02;;;;;;;0.00;0.00;;;;;;;;;;1738517;28;20522;-59
2023/12/09 01:19:53;;;;;;;0.00;0.00;;;;;;;;;;1738471;28;20425;-62
2023/12/09 01:20:44;;;;;;;0.05;0.05;;;;;;;;;;1736501;28;20242;-62
2023/12/09 01:21:37;;;;;;;0.10;0.10;;;;;;;;;;1737862;28;20213;-61
2023/12/09 01:22:28;;;;;;;0.00;0.00;;;;;;;;;;1737962;28;20234;-62
2023/12/09 01:23:22;;;;;;;0.00;0.00;;;;;;;;;;1737722;28;20209;-62
2023/12/09 01:24:14;;;;;;;0.00;0.00;;;;;;;;;;1738259;28;20725;-65
2023/12/09 01:25:06;;;;;;;0.00;0.00;;;;;;;;;;1737694;28;20214;-65
2023/12/09 01:25:58;;;;;;;0.00;0.00;;;;;;;;;;1737685;28;20234;-62
2023/12/09 01:26:49;;;;;;;0.00;0.00;;;;;;;;;;1737395;28;20223;-61
2023/12/09 01:27:40;;;;;;;0.00;0.00;;;;;;;;;;1738562;28;20721;-61
2023/12/09 01:28:32;;;;;;;0.00;0.00;;;;;;;;;;1737656;28;20207;-61
2023/12/09 01:29:23;;;;;;;0.00;0.00;;;;;;;;;;1738311;28;20234;-61
2023/12/09 01:30:15;;;;;;;0.00;0.00;;;;;;;;;;1736826;28;20202;-61
2023/12/09 01:31:06;;;;;;;0.00;0.00;;;;;;;;;;1738144;28;20230;-62
2023/12/09 01:31:57;;;;;;;0.00;0.00;;;;;;;;;;1738289;28;20195;-62
2023/12/09 01:32:49;;;;;;;0.00;0.00;;;;;;;;;;1737501;28;20213;-63
2023/12/09 01:33:40;;;;;;;0.00;0.00;;;;;;;;;;1737844;28;20979;-64
2023/12/09 01:34:31;;;;;;;0.00;0.00;;;;;;;;;;1738471;28;20992;-61
2023/12/09 01:35:23;;;;;;;0.00;0.00;;;;;;;;;;1736376;28;20207;-64
2023/12/09 01:36:14;;;;;;;0.00;0.00;;;;;;;;;;1738443;28;20252;-64
2023/12/09 01:37:06;;;;;;;0.00;0.00;;;;;;;;;;1737448;28;20237;-62
2023/12/09 01:37:58;;;;;;;0.00;0.00;;;;;;;;;;1738712;28;20380;-62
2023/12/09 01:38:49;;;;;;;0.00;0.00;;;;;;;;;;1737568;28;20230;-62
2023/12/09 01:39:41;;;;;;;0.00;0.00;;;;;;;;;;1738350;28;20813;-61
2023/12/09 01:40:33;;;;;;;0.00;0.00;;;;;;;;;;1736750;28;20342;-65
2023/12/09 01:41:24;;;;;;;0.00;0.00;;;;;;;;;;1737835;28;20548;-64
2023/12/09 01:42:15;;;;;;;0.00;0.00;;;;;;;;;;1737769;28;20573;-62
2023/12/09 01:43:10;;;;;;;0.00;0.00;;;;;;;;;;1737696;28;20661;-65
2023/12/09 01:44:00;;;;;;;0.00;0.00;;;;;;;;;;1738612;28;20211;-64
2023/12/09 01:44:52;;;;;;;0.00;0.00;;;;;;;;;;1737754;28;20769;-63
2023/12/09 01:45:43;;;;;;;0.00;0.00;;;;;;;;;;1735566;28;20377;-65
2023/12/09 01:46:35;;;;;;;0.00;0.00;;;;;;;;;;1737701;28;20203;-67
2023/12/09 01:47:26;;;;;;;0.00;0.00;;;;;;;;;;1738035;28;20272;-67
2023/12/09 01:48:18;;;;;;;0.00;0.00;;;;;;;;;;1737889;28;20306;-63
2023/12/09 01:49:10;;;;;;;0.00;0.00;;;;;;;;;;1738259;28;20601;-67
2023/12/09 01:50:01;;;;;;;0.00;0.00;;;;;;;;;;1738207;28;20538;-64
2023/12/09 01:50:52;;;;;;;0.00;0.00;;;;;;;;;;1737017;28;20230;-62
2023/12/09 01:51:44;;;;;;;0.00;0.00;;;;;;;;;;1737593;28;20597;-64
2023/12/09 01:52:36;;;;;;;0.00;0.00;;;;;;;;;;1738340;28;20566;-61
2023/12/09 01:53:27;;;;;;;0.00;0.00;;;;;;;;;;1737602;28;20203;-64
2023/12/09 01:54:19;;;;;;;0.00;0.00;;;;;;;;;;1738155;28;20666;-62
2023/12/09 01:55:12;;;;;;;0.00;0.00;;;;;;;;;;1737031;28;20263;-62
2023/12/09 01:56:05;;;;;;;0.00;0.00;;;;;;;;;;1737466;28;20242;-64
2023/12/09 01:56:57;;;;;;;0.00;0.00;;;;;;;;;;1737852;28;20218;-63
2023/12/09 01:57:48;;;;;;;0.00;0.00;;;;;;;;;;1738025;28;20269;-63
2023/12/09 01:58:41;;;;;;;0.00;0.00;;;;;;;;;;1737909;28;20198;-65
2023/12/09 01:59:32;;;;;;;0.00;0.00;;;;;;;;;;1738242;28;20260;-62
2023/12/09 02:00:24;;;;;;;0.00;0.00;;;;;;;;;;1735779;28;20218;-61
2023/12/09 02:01:15;;;;;;;0.00;0.00;;;;;;;;;;1738011;28;20210;-65
2023/12/09 02:02:07;;;;;;;0.00;0.00;;;;;;;;;;1737573;28;20222;-62
2023/12/09 02:02:59;;;;;;;0.00;0.00;;;;;;;;;;1738301;28;20290;-64
2023/12/09 02:03:50;;;;;;;0.00;0.00;;;;;;;;;;1737682;28;20272;-64
2023/12/09 02:04:41;;;;;;;0.00;0.00;;;;;;;;;;1738126;28;20195;-62
2023/12/09 02:05:33;;;;;;;0.00;0.00;;;;;;;;;;1736761;28;20239;-62
2023/12/09 02:06:24;;;;;;;0.00;0.00;;;;;;;;;;1737734;28;21191;-61
2023/12/09 02:07:17;;;;;;;0.00;0.00;;;;;;;;;;1737674;28;20202;-62
2023/12/09 02:08:08;;;;;;;0.00;0.00;;;;;;;;;;1737735;28;20207;-63
2023/12/09 02:08:59;;;;;;;0.00;0.00;;;;;;;;;;1738567;28;20237;-63
2023/12/09 02:09:51;;;;;;;0.00;0.00;;;;;;;;;;1737829;28;20601;-62
2023/12/09 02:10:46;;;;;;;0.00;0.00;;;;;;;;;;1736533;28;20305;-63
2023/12/09 02:11:40;;;;;;;0.00;0.00;;;;;;;;;;1724303;28;20212;-61
2023/12/09 02:12:36;;;;;;;0.00;0.00;;;;;;;;;;1724728;28;20207;-62
2023/12/09 02:13:30;;;;;;;0.00;0.00;;;;;;;;;;1725856;28;20208;-63
2023/12/09 02:14:22;;;;;;;0.00;0.00;;;;;;;;;;1725862;28;20223;-63
2023/12/09 02:15:21;;;;;;;0.00;0.00;;;;;;;;;;1724603;28;20204;-61
2023/12/09 02:16:15;;;;;;;0.00;0.00;;;;;;;;;;1725926;28;20200;-64
2023/12/09 02:17:11;;;;;;;0.00;0.00;;;;;;;;;;1725072;28;20801;-63
2023/12/09 02:18:05;;;;;;;0.10;0.10;;;;;;;;;;1726138;28;20200;-65
2023/12/09 02:18:56;;;;;;;0.00;0.00;;;;;;;;;;1725823;28;20216;-63
2023/12/09 02:19:51;;;;;;;0.00;0.00;;;;;;;;;;1725337;28;20211;-66
2023/12/09 02:20:42;;;;;;;0.00;0.00;;;;;;;;;;1724634;28;20358;-64
2023/12/09 02:21:48;;;;;;;0.00;0.00;;;;;;;;;;1725566;28;20239;-64
2023/12/09 02:22:40;;;;;;;0.00;0.00;;;;;;;;;;1723824;28;20314;-63
2023/12/09 02:23:32;;;;;;;0.00;0.00;;;;;;;;;;1725559;28;20699;-63
2023/12/09 02:24:23;;;;;;;0.00;0.00;;;;;;;;;;1725748;28;20217;-63
2023/12/09 02:25:15;;;;;;;0.00;0.00;;;;;;;;;;1724209;28;20745;-62
2023/12/09 02:26:11;;;;;;;0.00;0.00;;;;;;;;;;1725877;28;20254;-60
2023/12/09 02:27:07;;;;;;;0.00;0.00;;;;;;;;;;1725298;28;20252;-67
2023/12/09 02:28:01;;;;;;;0.00;0.00;;;;;;;;;;1719645;28;20189;-67
2023/12/09 02:28:57;;;;;;;0.00;0.00;;;;;;;;;;1725121;28;20277;-62
2023/12/09 02:29:51;;;;;;;0.00;0.00;;;;;;;;;;1725597;28;20204;-64
2023/12/09 02:30:47;;;;;;;0.00;0.00;;;;;;;;;;1724735;28;20307;-62
2023/12/09 02:31:39;;;;;;;0.00;0.00;;;;;;;;;;1725225;28;20282;-65
2023/12/09 02:32:31;;;;;;;0.00;0.00;;;;;;;;;;1725689;28;20219;-61
2023/12/09 02:33:23;;;;;;;0.00;0.00;;;;;;;;;;1724832;28;20212;-61
2023/12/09 02:34:15;;;;;;;0.00;0.00;;;;;;;;;;1725923;28;20266;-64
2023/12/09 02:35:08;;;;;;;0.00;0.00;;;;;;;;;;1725447;28;20214;-66
2023/12/09 02:36:00;;;;;;;0.00;0.00;;;;;;;;;;1716995;28;20245;-63
2023/12/09 02:36:51;;;;;;;0.00;0.00;;;;;;;;;;1718606;28;20796;-61
2023/12/09 02:37:44;;;;;;;0.00;0.00;;;;;;;;;;1718843;28;20211;-62
2023/12/09 02:38:37;;;;;;;0.00;0.00;;;;;;;;;;1718976;28;20267;-62
2023/12/09 02:39:28;;;;;;;0.00;0.00;;;;;;;;;;1718966;28;20217;-61
2023/12/09 02:40:20;;;;;;;0.00;0.00;;;;;;;;;;1718170;28;20200;-63
2023/12/09 02:41:11;;;;;;;0.00;0.00;;;;;;;;;;1725333;28;20794;-64
2023/12/09 02:42:03;;;;;;;0.00;0.00;;;;;;;;;;1725321;28;20637;-63
2023/12/09 02:42:55;;;;;;;0.00;0.00;;;;;;;;;;1725574;28;20236;-62
2023/12/09 02:43:47;;;;;;;0.00;0.00;;;;;;;;;;1725181;28;20275;-62
2023/12/09 02:44:40;;;;;;;0.13;0.13;;;;;;;;;;1725993;28;20204;-62
2023/12/09 02:45:32;;;;;;;0.00;0.00;;;;;;;;;;1724041;28;20587;-65
2023/12/09 02:46:24;;;;;;;0.00;0.00;;;;;;;;;;1725669;28;20270;-66
2023/12/09 02:47:15;;;;;;;0.00;0.00;;;;;;;;;;1724947;28;20204;-63
2023/12/09 02:48:07;;;;;;;0.00;0.00;;;;;;;;;;1725510;28;20517;-65
2023/12/09 02:48:59;;;;;;;0.00;0.00;;;;;;;;;;1724796;28;20269;-64
2023/12/09 02:49:50;;;;;;;0.00;0.00;;;;;;;;;;1725249;28;20298;-61
2023/12/09 02:50:42;;;;;;;0.00;0.00;;;;;;;;;;1724941;28;20231;-61
2023/12/09 02:51:33;;;;;;;0.00;0.00;;;;;;;;;;1725448;28;20253;-63
2023/12/09 02:52:24;;;;;;;0.00;0.00;;;;;;;;;;1725438;28;20204;-61
2023/12/09 02:53:16;;;;;;;0.00;0.00;;;;;;;;;;1725393;28;20231;-60
2023/12/09 02:54:09;;;;;;;0.00;0.00;;;;;;;;;;1725913;28;20266;-60
2023/12/09 02:55:00;;;;;;;0.00;0.00;;;;;;;;;;1721277;28;20220;-62
2023/12/09 02:55:52;;;;;;;0.00;0.00;;;;;;;;;;1724285;28;20239;-61
2023/12/09 02:56:43;;;;;;;0.00;0.00;;;;;;;;;;1725082;28;20216;-62
2023/12/09 02:57:35;;;;;;;0.00;0.00;;;;;;;;;;1725547;28;20205;-62
2023/12/09 02:58:26;;;;;;;0.00;0.00;;;;;;;;;;1725158;28;20212;-61
2023/12/09 02:59:18;;;;;;;0.00;0.00;;;;;;;;;;1725686;28;20705;-62
2023/12/09 03:00:09;;;;;;;0.00;0.00;;;;;;;;;;1724971;28;20238;-60
2023/12/09 03:01:00;;;;;;;0.00;0.00;;;;;;;;;;1724340;28;20216;-62
2023/12/09 03:01:52;;;;;;;0.00;0.00;;;;;;;;;;1725051;28;20216;-61
2023/12/09 03:02:43;;;;;;;0.00;0.00;;;;;;;;;;1724880;28;20232;-63
2023/12/09 03:03:34;;;;;;;0.00;0.00;;;;;;;;;;1723124;28;20275;-63
2023/12/09 03:04:27;;;;;;;0.00;0.00;;;;;;;;;;1725347;28;20282;-61
2023/12/09 03:05:18;;;;;;;0.10;0.10;;;;;;;;;;1725199;28;20261;-61
2023/12/09 03:06:10;;;;;;;0.00;0.00;;;;;;;;;;1724474;28;20719;-61
2023/12/09 03:07:01;;;;;;;0.00;0.00;;;;;;;;;;1724895;28;20297;-62
2023/12/09 03:07:52;;;;;;;0.00;0.00;;;;;;;;;;1725701;28;20255;-62
2023/12/09 03:08:44;;;;;;;0.00;0.00;;;;;;;;;;1724921;28;20247;-63
2023/12/09 03:09:36;;;;;;;0.00;0.00;;;;;;;;;;1725789;28;20262;-64
2023/12/09 03:10:28;;;;;;;0.00;0.00;;;;;;;;;;1723856;28;20212;-64
2023/12/09 03:11:19;;;;;;;0.00;0.00;;;;;;;;;;1733082;28;20303;-65
2023/12/09 03:12:10;;;;;;;0.00;0.00;;;;;;;;;;1738481;28;20268;-63
2023/12/09 03:13:02;;;;;;;0.00;0.00;;;;;;;;;;1739466;28;20392;-62
2023/12/09 03:13:53;;;;;;;0.00;0.00;;;;;;;;;;1738878;28;20302;-63
2023/12/09 03:14:44;;;;;;;0.00;0.00;;;;;;;;;;1738804;28;20248;-63
2023/12/09 03:15:36;;;;;;;0.00;0.00;;;;;;;;;;1737451;28;20300;-63
2023/12/09 03:16:27;;;;;;;0.00;0.00;;;;;;;;;;1738653;28;20256;-65
2023/12/09 03:17:19;;;;;;;0.00;0.00;;;;;;;;;;1738516;28;20669;-62
2023/12/09 03:18:11;;;;;;;0.00;0.00;;;;;;;;;;1738730;28;20199;-61
2023/12/09 03:19:02;;;;;;;0.00;0.00;;;;;;;;;;1739129;28;20218;-64
2023/12/09 03:19:53;;;;;;;0.00;0.00;;;;;;;;;;1738677;28;20207;-63
2023/12/09 03:20:45;;;;;;;0.00;0.00;;;;;;;;;;1736705;28;20313;-64
2023/12/09 03:21:36;;;;;;;0.00;0.00;;;;;;;;;;1738561;28;20268;-65
2023/12/09 03:22:27;;;;;;;0.00;0.00;;;;;;;;;;1739122;28;20302;-62
2023/12/09 03:23:20;;;;;;;0.00;0.00;;;;;;;;;;1738315;28;20203;-64
2023/12/09 03:24:11;;;;;;;0.10;0.10;;;;;;;;;;1738966;28;20711;-63
2023/12/09 03:25:03;;;;;;;0.00;0.00;;;;;;;;;;1738747;28;20207;-65
2023/12/09 03:25:55;;;;;;;0.00;0.00;;;;;;;;;;1738057;28;20752;-64
2023/12/09 03:26:49;;;;;;;0.00;0.00;;;;;;;;;;1738354;28;20227;-65
2023/12/09 03:27:40;;;;;;;0.00;0.00;;;;;;;;;;1738888;28;20318;-63
2023/12/09 03:28:32;;;;;;;0.00;0.00;;;;;;;;;;1738636;28;20211;-65
2023/12/09 03:29:23;;;;;;;0.00;0.00;;;;;;;;;;1738787;28;20211;-63
2023/12/09 03:30:14;;;;;;;0.00;0.00;;;;;;;;;;1737614;28;20209;-61
2023/12/09 03:31:06;;;;;;;0.00;0.00;;;;;;;;;;1739396;28;20286;-63
2023/12/09 03:31:57;;;;;;;0.00;0.00;;;;;;;;;;1738499;28;20211;-64
2023/12/09 03:32:48;;;;;;;0.00;0.00;;;;;;;;;;1738760;28;20232;-65
2023/12/09 03:33:40;;;;;;;0.00;0.00;;;;;;;;;;1738462;28;20287;-62
2023/12/09 03:34:31;;;;;;;0.00;0.00;;;;;;;;;;1739264;28;20268;-62
2023/12/09 03:35:22;;;;;;;0.00;0.00;;;;;;;;;;1737160;28;20252;-62
2023/12/09 03:36:14;;;;;;;0.00;0.00;;;;;;;;;;1739080;28;20266;-62
2023/12/09 03:37:05;;;;;;;0.00;0.00;;;;;;;;;;1738706;28;20766;-62
2023/12/09 03:37:56;;;;;;;0.00;0.00;;;;;;;;;;1738806;28;20639;-64
2023/12/09 03:38:48;;;;;;;0.00;0.00;;;;;;;;;;1738449;28;20666;-62
2023/12/09 03:39:39;;;;;;;0.00;0.00;;;;;;;;;;1738828;28;20211;-62
2023/12/09 03:40:32;;;;;;;0.00;0.00;;;;;;;;;;1737221;28;20749;-66
2023/12/09 03:41:23;;;;;;;0.00;0.00;;;;;;;;;;1738867;28;20207;-61
2023/12/09 03:42:14;;;;;;;0.00;0.00;;;;;;;;;;1738397;28;20203;-64
2023/12/09 03:43:06;;;;;;;0.10;0.10;;;;;;;;;;1738875;28;20261;-67
2023/12/09 03:43:57;;;;;;;0.00;0.00;;;;;;;;;;1738578;28;20268;-61
2023/12/09 03:44:48;;;;;;;0.00;0.00;;;;;;;;;;1738710;28;20207;-66
2023/12/09 03:45:42;;;;;;;0.00;0.00;;;;;;;;;;1737730;28;20258;-61
2023/12/09 03:46:33;;;;;;;0.03;0.03;;;;;;;;;;1738118;28;20256;-63
2023/12/09 03:47:24;;;;;;;0.00;0.00;;;;;;;;;;1735097;28;20661;-62
2023/12/09 03:48:16;;;;;;;0.00;0.00;;;;;;;;;;1738236;28;20781;-62
2023/12/09 03:49:07;;;;;;;0.00;0.00;;;;;;;;;;1739315;28;20206;-62
2023/12/09 03:49:58;;;;;;;0.00;0.00;;;;;;;;;;1738375;28;20207;-64
2023/12/09 03:50:50;;;;;;;0.00;0.00;;;;;;;;;;1737839;28;20284;-62
2023/12/09 03:51:41;;;;;;;0.00;0.00;;;;;;;;;;1738440;28;20211;-64
2023/12/09 03:52:32;;;;;;;0.00;0.00;;;;;;;;;;1738860;28;21642;-63
2023/12/09 03:53:24;;;;;;;0.00;0.00;;;;;;;;;;1738468;28;20207;-62
2023/12/09 03:54:15;;;;;;;0.00;0.00;;;;;;;;;;1738707;28;20623;-63
2023/12/09 03:55:07;;;;;;;0.00;0.00;;;;;;;;;;1738617;28;20616;-63
2023/12/09 03:56:00;;;;;;;0.00;0.00;;;;;;;;;;1737754;28;20669;-61
2023/12/09 03:56:51;;;;;;;0.00;0.00;;;;;;;;;;1738122;28;20361;-62
2023/12/09 03:57:43;;;;;;;0.00;0.00;;;;;;;;;;1738927;28;20264;-62
2023/12/09 03:58:34;;;;;;;0.00;0.00;;;;;;;;;;1738178;28;20803;-64
2023/12/09 03:59:25;;;;;;;0.00;0.00;;;;;;;;;;1738849;28;20202;-66
2023/12/09 04:00:17;;;;;;;0.00;0.00;;;;;;;;;;1737050;28;20202;-66
2023/12/09 04:01:09;;;;;;;0.00;0.00;;;;;;;;;;1738514;28;20272;-61
2023/12/09 04:02:00;;;;;;;0.00;0.00;;;;;;;;;;1738737;28;20215;-63
2023/12/09 04:02:52;;;;;;;0.00;0.00;;;;;;;;;;1738224;28;20484;-64
2023/12/09 04:03:43;;;;;;;0.00;0.00;;;;;;;;;;1738284;28;20207;-62
2023/12/09 04:04:38;;;;;;;0.00;0.00;;;;;;;;;;1738859;28;20207;-64
2023/12/09 04:05:29;;;;;;;0.00;0.00;;;;;;;;;;1737039;28;20220;-61
2023/12/09 04:06:21;;;;;;;0.00;0.00;;;;;;;;;;1738683;28;20630;-64
2023/12/09 04:07:13;;;;;;;0.00;0.00;;;;;;;;;;1738352;28;20357;-65
2023/12/09 04:08:04;;;;;;;0.00;0.00;;;;;;;;;;1739196;28;20226;-63
2023/12/09 04:08:55;;;;;;;0.00;0.00;;;;;;;;;;1738284;28;20207;-62
2023/12/09 04:09:47;;;;;;;0.00;0.00;;;;;;;;;;1738549;28;20202;-65
2023/12/09 04:10:38;;;;;;;0.00;0.00;;;;;;;;;;1737489;28;20279;-64
2023/12/09 04:11:32;;;;;;;0.00;0.00;;;;;;;;;;1737080;28;20238;-61
2023/12/09 04:12:23;;;;;;;0.00;0.00;;;;;;;;;;1738638;28;20202;-64
2023/12/09 04:13:14;;;;;;;0.00;0.00;;;;;;;;;;1738219;28;20202;-63
2023/12/09 04:14:06;;;;;;;0.00;0.00;;;;;;;;;;1739384;28;20238;-64
2023/12/09 04:14:57;;;;;;;0.00;0.00;;;;;;;;;;1738638;28;20272;-64
2023/12/09 04:15:48;;;;;;;0.00;0.00;;;;;;;;;;1737804;28;20357;-66
2023/12/09 04:16:40;;;;;;;0.00;0.00;;;;;;;;;;1738235;28;20222;-63
2023/12/09 04:17:31;;;;;;;0.00;0.00;;;;;;;;;;1738387;28;20236;-66
2023/12/09 04:18:22;;;;;;;0.00;0.00;;;;;;;;;;1738636;28;20712;-66
2023/12/09 04:19:14;;;;;;;0.00;0.00;;;;;;;;;;1739109;28;20697;-63
2023/12/09 04:20:07;;;;;;;0.00;0.00;;;;;;;;;;1737140;28;20230;-62
2023/12/09 04:20:59;;;;;;;0.00;0.00;;;;;;;;;;1738177;28;21028;-63
2023/12/09 04:21:51;;;;;;;0.00;0.00;;;;;;;;;;1738335;28;20215;-61
2023/12/09 04:22:43;;;;;;;0.00;0.00;;;;;;;;;;1739157;28;20199;-66
2023/12/09 04:23:34;;;;;;;0.00;0.00;;;;;;;;;;1738293;28;20490;-62
2023/12/09 04:24:26;;;;;;;0.00;0.00;;;;;;;;;;1738849;28;20748;-62
2023/12/09 04:25:17;;;;;;;0.00;0.00;;;;;;;;;;1737467;28;20280;-61
2023/12/09 04:26:08;;;;;;;0.00;0.00;;;;;;;;;;1733669;28;20273;-62
2023/12/09 04:27:01;;;;;;;0.17;0.17;;;;;;;;;;1736446;28;20226;-63
2023/12/09 04:27:54;;;;;;;0.00;0.00;;;;;;;;;;1738908;28;20275;-61
2023/12/09 04:28:46;;;;;;;0.03;0.03;;;;;;;;;;1735590;28;20207;-63
2023/12/09 04:29:38;;;;;;;0.00;0.00;;;;;;;;;;1736909;28;20205;-63
2023/12/09 04:30:29;;;;;;;0.00;0.00;;;;;;;;;;1737316;28;20207;-61
2023/12/09 04:31:20;;;;;;;0.00;0.00;;;;;;;;;;1739242;28;20198;-62
2023/12/09 04:32:12;;;;;;;0.00;0.00;;;;;;;;;;1738549;28;20202;-64
2023/12/09 04:33:03;;;;;;;0.00;0.00;;;;;;;;;;1738830;28;20214;-65
2023/12/09 04:33:54;;;;;;;0.00;0.00;;;;;;;;;;1738513;28;20695;-62
2023/12/09 04:34:46;;;;;;;0.00;0.00;;;;;;;;;;1738681;28;20211;-66
2023/12/09 04:35:37;;;;;;;0.00;0.00;;;;;;;;;;1736949;28;20207;-61
2023/12/09 04:36:29;;;;;;;0.00;0.00;;;;;;;;;;1738177;28;20214;-63
2023/12/09 04:37:20;;;;;;;0.00;0.00;;;;;;;;;;1738815;28;20248;-61
2023/12/09 04:38:11;;;;;;;0.00;0.00;;;;;;;;;;1738841;28;20210;-62
2023/12/09 04:39:04;;;;;;;0.00;0.00;;;;;;;;;;1739007;28;20225;-61
2023/12/09 04:39:56;;;;;;;0.00;0.00;;;;;;;;;;1737359;28;20226;-62
2023/12/09 04:40:48;;;;;;;0.00;0.00;;;;;;;;;;1737364;28;20310;-61
2023/12/09 04:41:39;;;;;;;0.05;0.05;;;;;;;;;;1738292;28;20215;-61
2023/12/09 04:42:31;;;;;;;0.00;0.00;;;;;;;;;;1738628;28;20214;-61
2023/12/09 04:43:23;;;;;;;0.00;0.00;;;;;;;;;;1738350;28;20231;-63
2023/12/09 04:44:14;;;;;;;0.00;0.00;;;;;;;;;;1739016;28;20214;-65
2023/12/09 04:45:06;;;;;;;0.00;0.00;;;;;;;;;;1738264;28;20207;-66
2023/12/09 04:45:58;;;;;;;0.00;0.00;;;;;;;;;;1737568;28;20238;-62
2023/12/09 04:46:49;;;;;;;0.00;0.00;;;;;;;;;;1737634;28;20268;-61
2023/12/09 04:47:40;;;;;;;0.00;0.00;;;;;;;;;;1738241;28;20887;-61
2023/12/09 04:48:32;;;;;;;0.00;0.00;;;;;;;;;;1738002;28;20245;-63
2023/12/09 04:49:23;;;;;;;0.00;0.00;;;;;;;;;;1738623;28;20211;-63
2023/12/09 04:50:15;;;;;;;0.00;0.00;;;;;;;;;;1737437;28;20207;-61
2023/12/09 04:51:06;;;;;;;0.00;0.00;;;;;;;;;;1738372;28;20288;-64
2023/12/09 04:51:57;;;;;;;0.00;0.00;;;;;;;;;;1738242;28;20203;-62
2023/12/09 04:52:49;;;;;;;0.00;0.00;;;;;;;;;;1738157;28;20203;-62
2023/12/09 04:53:41;;;;;;;0.00;0.00;;;;;;;;;;1738080;28;20729;-63
2023/12/09 04:54:32;;;;;;;0.00;0.00;;;;;;;;;;1738448;28;20238;-64
2023/12/09 04:55:24;;;;;;;0.00;0.00;;;;;;;;;;1736864;28;20214;-63
2023/12/09 04:56:15;;;;;;;0.00;0.00;;;;;;;;;;1739128;28;20198;-62
2023/12/09 04:57:07;;;;;;;0.00;0.00;;;;;;;;;;1737710;28;20693;-61
2023/12/09 04:58:00;;;;;;;0.00;0.00;;;;;;;;;;1738970;28;20302;-62
2023/12/09 04:58:51;;;;;;;0.00;0.00;;;;;;;;;;1737947;28;20215;-61
2023/12/09 04:59:43;;;;;;;0.00;0.00;;;;;;;;;;1738766;28;20498;-60
2023/12/09 05:00:34;;;;;;;0.00;0.00;;;;;;;;;;1736848;28;20326;-64
2023/12/09 05:01:26;;;;;;;0.00;0.00;;;;;;;;;;1738199;28;20244;-66
2023/12/09 05:02:20;;;;;;;0.00;0.00;;;;;;;;;;1738388;28;20240;-65
2023/12/09 05:03:12;;;;;;;0.00;0.00;;;;;;;;;;1737998;28;20199;-60
2023/12/09 05:04:03;;;;;;;0.00;0.00;;;;;;;;;;1738480;28;20241;-61
2023/12/09 05:04:54;;;;;;;0.00;0.00;;;;;;;;;;1736313;28;20238;-62
2023/12/09 05:05:46;;;;;;;0.00;0.00;;;;;;;;;;1737014;28;20409;-62
2023/12/09 05:06:37;;;;;;;0.00;0.00;;;;;;;;;;1737726;28;20685;-60
2023/12/09 05:07:29;;;;;;;0.00;0.00;;;;;;;;;;1738273;28;20230;-62
2023/12/09 05:08:20;;;;;;;0.00;0.00;;;;;;;;;;1737801;28;20624;-61
2023/12/09 05:09:12;;;;;;;0.00;0.00;;;;;;;;;;1738859;28;20613;-61
2023/12/09 05:10:04;;;;;;;0.00;0.00;;;;;;;;;;1737940;28;20606;-62
2023/12/09 05:10:55;;;;;;;0.00;0.00;;;;;;;;;;1735623;28;20650;-63